Time;durP1;ratioP1;P1;durP2;ratioP2;P2;SDS_P1;SDS_P2;PMS_P1;PMS_P2;Temp;Humidity;BMP_temperature;BMP_pressure;BME280_temperature;BME280_humidity;BME280_pressure;Samples;Min_cycle;Max_cycle;Signal;HPM_P1;HPM_P2
2022/05/15 00:02:44;;;;;;;;;16.00;13.60;;;;;20.13;57.55;99288.78;5075312;28;45371;-62
2022/05/15 00:05:10;;;;;;;;;12.25;12.25;;;;;20.12;57.96;99283.53;5088278;27;45433;-62
2022/05/15 00:07:36;;;;;;;;;13.75;13.00;;;;;20.09;57.94;99290.00;5095633;27;45406;-62
2022/05/15 00:10:04;;;;;;;;;14.75;12.75;;;;;20.09;57.66;99286.47;5085484;27;45441;-62
2022/05/15 00:12:29;;;;;;;;;14.80;13.60;;;;;20.09;57.67;99291.84;5075781;27;45438;-62
2022/05/15 00:14:55;;;;;;;;;14.50;13.50;;;;;20.09;57.80;99294.50;5075320;28;45420;-62
2022/05/15 00:17:29;;;;;;;;;12.00;11.00;;;;;20.09;57.86;99300.72;5075316;28;45288;-62
2022/05/15 00:19:54;;;;;;;;;13.50;13.25;;;;;20.06;58.26;99292.91;5075150;28;46621;-62
2022/05/15 00:22:20;;;;;;;;;14.50;14.00;;;;;20.02;58.36;99290.56;5075636;28;45338;-62
2022/05/15 00:24:45;;;;;;;;;12.75;10.25;;;;;19.97;58.42;99288.25;5075191;28;45438;-62
2022/05/15 00:27:11;;;;;;;;;16.50;15.25;;;;;19.95;58.78;99292.00;5075392;28;45371;-62
2022/05/15 00:29:37;;;;;;;;;14.50;13.25;;;;;19.93;58.42;99302.00;5075266;27;45464;-62
2022/05/15 00:32:02;;;;;;;;;13.25;13.25;;;;;19.90;59.16;99297.72;5097380;27;45431;-62
2022/05/15 00:34:28;;;;;;;;;14.25;13.75;;;;;19.85;59.37;99303.41;5067253;28;45408;-62
2022/05/15 00:36:53;;;;;;;;;16.25;14.00;;;;;19.80;59.45;99300.22;5091026;27;45322;-62
2022/05/15 00:39:19;;;;;;;;;17.50;14.00;;;;;19.76;57.92;99297.91;5084960;27;46401;-62
2022/05/15 00:41:53;;;;;;;;;16.00;14.25;;;;;19.71;59.56;99300.06;5078372;28;45381;-62
2022/05/15 00:44:18;;;;;;;;;15.25;12.00;;;;;19.65;59.29;99304.03;5078374;28;45534;-62
2022/05/15 00:46:44;;;;;;;;;11.25;11.25;;;;;19.59;60.02;99293.81;5078901;28;45231;-62
2022/05/15 00:49:12;;;;;;;;;15.00;13.00;;;;;19.53;59.95;99302.28;5078238;28;46056;-62
2022/05/15 00:51:53;;;;;;;;;14.75;11.75;;;;;19.47;60.54;99298.19;5060415;28;45411;-62
2022/05/15 00:54:32;;;;;;;;;14.00;13.00;;;;;19.43;60.61;99296.75;5078183;28;45503;-62
2022/05/15 00:57:08;;;;;;;;;16.50;16.50;;;;;19.42;60.72;99296.84;5090034;27;45419;-62
2022/05/15 00:59:42;;;;;;;;;16.25;15.00;;;;;19.39;60.96;99303.28;5078487;27;46436;-62
2022/05/15 01:02:10;;;;;;;;;11.60;10.40;;;;;19.36;60.79;99310.66;5078230;27;45245;-62
2022/05/15 01:04:36;;;;;;;;;16.00;16.00;;;;;19.32;61.15;99304.69;5086409;27;45338;-62
2022/05/15 01:07:03;;;;;;;;;15.50;15.50;;;;;19.32;61.10;99310.03;5098429;27;45511;-62
2022/05/15 01:09:29;;;;;;;;;12.50;12.50;;;;;19.33;61.31;99318.91;5098323;27;45486;-62
2022/05/15 01:11:57;;;;;;;;;14.75;14.75;;;;;19.32;61.10;99320.72;5082173;27;45421;-63
2022/05/15 01:14:24;;;;;;;;;16.25;14.50;;;;;19.30;61.14;99309.28;5078454;28;45419;-63
2022/05/15 01:16:49;;;;;;;;;14.00;14.00;;;;;19.26;61.31;99309.63;5078231;28;45546;-62
2022/05/15 01:19:14;;;;;;;;;14.75;13.25;;;;;19.23;61.83;99315.19;5078218;28;45356;-62
2022/05/15 01:21:56;;;;;;;;;16.25;15.25;;;;;19.18;61.77;99315.53;5059510;28;45450;-63
2022/05/15 01:24:21;;;;;;;;;12.00;12.00;;;;;19.11;61.36;99320.44;5077701;28;45328;-63
2022/05/15 01:26:47;;;;;;;;;15.50;11.00;;;;;19.07;61.80;99318.97;5077611;28;45464;-63
2022/05/15 01:29:12;;;;;;;;;13.00;12.50;;;;;19.02;62.14;99323.78;5077641;28;45630;-63
2022/05/15 01:31:48;;;;;;;;;13.25;13.25;;;;;19.01;62.55;99334.59;5059540;28;45366;-62
2022/05/15 01:34:14;;;;;;;;;15.00;14.25;;;;;18.97;62.24;99331.28;5077526;28;45313;-62
2022/05/15 01:36:39;;;;;;;;;12.00;11.00;;;;;18.91;62.44;99331.72;5087618;27;45354;-62
2022/05/15 01:39:06;;;;;;;;;10.25;10.25;;;;;18.83;63.03;99328.72;5097791;27;46362;-62
2022/05/15 01:41:31;;;;;;;;;16.60;15.60;;;;;18.74;63.36;99332.06;5097751;27;45648;-62
2022/05/15 01:43:56;;;;;;;;;14.00;14.00;;;;;18.67;63.42;99325.41;5097984;27;45485;-62
2022/05/15 01:46:24;;;;;;;;;14.25;12.50;;;;;18.62;62.82;99325.75;5079464;27;45442;-63
2022/05/15 01:48:51;;;;;;;;;13.75;13.00;;;;;18.58;63.83;99318.88;5097937;27;45464;-62
2022/05/15 01:51:26;;;;;;;;;15.80;14.00;;;;;18.57;63.39;99327.00;5097625;27;45317;-62
2022/05/15 01:53:52;;;;;;;;;14.75;14.75;;;;;18.54;64.00;99329.88;5097873;27;45423;-62
2022/05/15 01:56:18;;;;;;;;;15.25;15.25;;;;;18.49;64.56;99324.84;5097649;27;45613;-62
2022/05/15 01:58:52;;;;;;;;;15.00;12.25;;;;;18.44;64.13;99329.66;5097749;27;46536;-62
2022/05/15 02:01:27;;;;;;;;;13.00;13.00;;;;;18.40;64.52;99321.03;5097894;27;45488;-62
2022/05/15 02:03:52;;;;;;;;;16.00;15.50;;;;;18.38;64.41;99333.63;5097626;27;45400;-62
2022/05/15 02:06:18;;;;;;;;;12.50;12.25;;;;;18.35;64.74;99328.47;5098017;27;45383;-62
2022/05/15 02:08:44;;;;;;;;;12.50;11.00;;;;;18.29;64.62;99320.88;5097001;27;45756;-62
2022/05/15 02:11:09;;;;;;;;;15.75;13.50;;;;;18.26;65.66;99320.25;5088595;27;45302;-62
2022/05/15 02:13:44;;;;;;;;;15.00;12.50;;;;;18.21;65.63;99317.03;5077559;28;45515;-62
2022/05/15 02:16:10;;;;;;;;;15.50;13.50;;;;;18.14;65.42;99314.78;5077001;28;45159;-62
2022/05/15 02:18:35;;;;;;;;;17.25;15.75;;;;;18.10;65.59;99321.28;5077051;28;45463;-62
2022/05/15 02:21:01;;;;;;;;;14.50;13.50;;;;;18.09;65.89;99321.41;5077033;28;45359;-62
2022/05/15 02:23:29;;;;;;;;;14.75;14.75;;;;;18.05;65.76;99319.91;5077019;28;45436;-62
2022/05/15 02:25:55;;;;;;;;;13.50;13.25;;;;;18.05;66.12;99334.09;5077050;28;45296;-62
2022/05/15 02:28:21;;;;;;;;;13.50;13.50;;;;;18.06;66.11;99322.47;5077082;28;45398;-62
2022/05/15 02:30:50;;;;;;;;;14.00;13.75;;;;;18.07;65.98;99321.50;5076985;28;45387;-62
2022/05/15 02:33:24;;;;;;;;;17.50;16.75;;;;;18.07;66.16;99323.31;5077287;28;45272;-62
2022/05/15 02:35:49;;;;;;;;;13.50;13.50;;;;;18.05;66.70;99318.09;5079968;27;45333;-62
2022/05/15 02:38:15;;;;;;;;;15.50;15.00;;;;;18.05;66.42;99322.56;5092245;27;46670;-62
2022/05/15 02:40:41;;;;;;;;;13.75;13.50;;;;;18.05;66.45;99323.41;5076667;28;45420;-62
2022/05/15 02:43:06;;;;;;;;;15.75;13.50;;;;;18.06;66.16;99316.28;5076752;28;45350;-62
2022/05/15 02:45:32;;;;;;;;;13.75;13.75;;;;;18.06;66.17;99318.94;5076757;28;45420;-62
2022/05/15 02:47:57;;;;;;;;;12.75;12.75;;;;;18.07;66.52;99323.31;5076104;28;45714;-62
2022/05/15 02:53:16;;;;;;;;;18.00;16.25;;;;;18.05;66.81;99318.09;5076038;28;45473;-62
2022/05/15 02:55:41;;;;;;;;;14.25;13.00;;;;;18.05;66.60;99319.91;5075571;28;45537;-62
2022/05/15 02:58:07;;;;;;;;;16.00;14.50;;;;;18.01;67.06;99313.06;5058021;28;48064;-62
2022/05/15 03:00:32;;;;;;;;;20.00;16.50;;;;;17.96;67.26;99307.16;5076566;28;45382;-62
2022/05/15 03:02:59;;;;;;;;;14.50;14.50;;;;;17.91;67.30;99312.81;5076652;28;45434;-62
2022/05/15 03:05:24;;;;;;;;;14.00;13.75;;;;;17.88;67.72;99314.84;5090256;27;45423;-62
2022/05/15 03:08:00;;;;;;;;;18.25;17.50;;;;;17.84;67.40;99311.50;5076379;28;46348;-62
2022/05/15 03:10:26;;;;;;;;;15.50;14.50;;;;;17.82;67.49;99321.44;5080125;27;45373;-62
2022/05/15 03:13:00;;;;;;;;;17.50;15.00;;;;;17.83;67.74;99317.81;5076320;28;45494;-62
2022/05/15 03:15:26;;;;;;;;;14.00;12.50;;;;;17.83;67.77;99320.47;5075905;27;45584;-62
2022/05/15 03:17:51;;;;;;;;;14.25;14.25;;;;;17.84;67.38;99316.84;5076259;28;46365;-62
2022/05/15 03:20:18;;;;;;;;;14.50;14.50;;;;;17.84;67.78;99310.66;5075902;27;45373;-62
2022/05/15 03:22:44;;;;;;;;;15.75;15.00;;;;;17.82;67.90;99315.22;5076271;28;45380;-62
2022/05/15 03:25:10;;;;;;;;;15.50;13.25;;;;;17.77;68.17;99311.06;5075488;28;45571;-62
2022/05/15 03:27:36;;;;;;;;;12.50;12.50;;;;;17.71;68.52;99314.16;5075607;28;46718;-63
2022/05/15 03:30:04;;;;;;;;;19.25;15.75;;;;;17.65;68.75;99319.00;5075805;28;45365;-66
2022/05/15 03:32:30;;;;;;;;;16.50;15.75;;;;;17.60;68.46;99315.75;5076250;27;45359;-62
2022/05/15 03:34:55;;;;;;;;;15.50;14.75;;;;;17.55;68.94;99317.88;5089428;27;45479;-62
2022/05/15 03:37:21;;;;;;;;;14.50;14.50;;;;;17.50;68.93;99312.00;5091676;27;45571;-62
2022/05/15 03:39:46;;;;;;;;;17.00;16.25;;;;;17.44;69.14;99308.75;5078260;27;45423;-62
2022/05/15 03:42:21;;;;;;;;;16.00;15.25;;;;;17.41;69.19;99311.66;5075489;28;45297;-62
2022/05/15 03:44:46;;;;;;;;;15.75;15.00;;;;;17.37;69.95;99312.81;5075498;28;45492;-62
2022/05/15 03:47:12;;;;;;;;;14.25;13.00;;;;;17.30;67.92;99310.63;5075573;28;45372;-62
2022/05/15 03:49:37;;;;;;;;;14.25;13.75;;;;;17.26;69.07;99304.63;5075535;28;45399;-62
2022/05/15 03:52:03;;;;;;;;;14.25;13.50;;;;;17.25;69.25;99305.59;5075872;28;45298;-62
2022/05/15 03:54:29;;;;;;;;;17.50;14.50;;;;;17.24;69.29;99308.38;5056660;28;47262;-62
2022/05/15 03:56:54;;;;;;;;;17.25;15.25;;;;;17.23;69.72;99309.31;5075550;28;45368;-62
2022/05/15 03:59:25;;;;;;;;;15.75;14.00;;;;;17.22;70.03;99311.13;5075573;28;45438;-62
2022/05/15 04:01:51;;;;;;;;;15.25;15.00;;;;;17.22;69.95;99303.13;5075726;28;45444;-62
2022/05/15 04:04:17;;;;;;;;;12.00;12.00;;;;;17.26;70.33;99306.47;5080658;27;45418;-62
2022/05/15 04:06:42;;;;;;;;;15.25;15.25;;;;;17.28;70.04;99309.84;5082584;27;46369;-62
2022/05/15 04:09:08;;;;;;;;;15.00;14.50;;;;;17.29;70.19;99304.44;5074885;28;45410;-62
2022/05/15 04:11:33;;;;;;;;;14.00;14.00;;;;;17.31;70.30;99305.19;5057324;28;45315;-62
2022/05/15 04:13:59;;;;;;;;;14.00;14.00;;;;;17.34;70.31;99314.81;5075453;28;45314;-62
2022/05/15 04:16:34;;;;;;;;;12.50;12.00;;;;;17.35;70.06;99316.50;5075465;28;45500;-62
2022/05/15 04:19:01;;;;;;;;;17.50;16.25;;;;;17.36;70.27;99318.22;5075496;28;45317;-62
2022/05/15 04:21:27;;;;;;;;;16.25;14.75;;;;;17.34;70.15;99318.31;5075527;28;45500;-62
2022/05/15 04:23:52;;;;;;;;;17.00;14.75;;;;;17.33;70.05;99321.94;5074977;28;45456;-62
2022/05/15 04:26:18;;;;;;;;;16.75;16.75;;;;;17.34;70.16;99328.13;5074996;28;45464;-62
2022/05/15 04:28:43;;;;;;;;;13.50;12.75;;;;;17.32;69.77;99328.22;5056490;28;45380;-62
2022/05/15 04:31:09;;;;;;;;;16.50;15.00;;;;;17.34;70.32;99328.13;5074849;27;45900;-62
2022/05/15 04:33:34;;;;;;;;;13.00;12.25;;;;;17.36;69.96;99324.41;5075091;28;45559;-62
2022/05/15 04:36:00;;;;;;;;;15.75;15.00;;;;;17.38;69.66;99321.66;5079394;27;45506;-62
2022/05/15 04:38:26;;;;;;;;;18.00;16.75;;;;;17.40;69.90;99328.59;5081491;27;45431;-62
2022/05/15 04:40:52;;;;;;;;;17.25;17.00;;;;;17.43;69.83;99327.53;5095166;27;45425;-62
2022/05/15 04:43:18;;;;;;;;;12.50;12.50;;;;;17.47;69.86;99330.84;5095342;27;45346;-62
2022/05/15 04:45:43;;;;;;;;;15.25;15.25;;;;;17.48;69.59;99328.09;5094918;27;45916;-62
2022/05/15 04:48:10;;;;;;;;;17.25;14.75;;;;;17.52;70.08;99331.41;5095337;27;45423;-62
2022/05/15 04:50:37;;;;;;;;;13.50;13.50;;;;;17.55;69.55;99329.41;5095450;27;45411;-62
2022/05/15 04:53:03;;;;;;;;;16.50;14.00;;;;;17.59;69.70;99325.59;5095036;27;45445;-62
2022/05/15 04:55:29;;;;;;;;;14.50;14.50;;;;;17.62;69.36;99337.84;5095384;27;45405;-62
2022/05/15 04:57:54;;;;;;;;;14.00;13.25;;;;;17.63;69.33;99335.09;5076506;27;45412;-62
2022/05/15 05:00:19;;;;;;;;;14.75;14.25;;;;;17.67;68.89;99333.97;5095429;27;45246;-62
2022/05/15 05:02:45;;;;;;;;;14.75;14.50;;;;;17.69;68.94;99324.06;5094567;27;45425;-62
2022/05/15 05:05:12;;;;;;;;;14.25;13.50;;;;;17.73;69.18;99335.38;5095159;27;46326;-62
2022/05/15 05:07:38;;;;;;;;;16.25;15.50;;;;;17.75;69.13;99331.66;5075151;27;45325;-62
2022/05/15 05:10:06;;;;;;;;;14.75;13.75;;;;;17.77;69.42;99334.19;5077588;27;45400;-61
2022/05/15 05:12:42;;;;;;;;;17.75;15.00;;;;;17.81;68.98;99334.84;5074567;27;45508;-62
2022/05/15 05:15:09;;;;;;;;;15.00;15.00;;;;;17.84;69.27;99330.19;5074452;28;45474;-62
2022/05/15 05:17:35;;;;;;;;;15.40;13.40;;;;;17.90;68.87;99337.78;5075952;28;45437;-62
2022/05/15 05:20:01;;;;;;;;;15.25;14.75;;;;;17.96;69.11;99332.03;5077802;28;45418;-62
2022/05/15 05:22:35;;;;;;;;;15.75;14.25;;;;;18.02;69.02;99339.63;5077934;28;45416;-62
2022/05/15 05:25:01;;;;;;;;;19.25;15.25;;;;;18.08;68.66;99338.38;5059267;28;47422;-62
2022/05/15 05:27:26;;;;;;;;;14.75;14.75;;;;;18.16;68.08;99338.69;5077991;28;45383;-62
2022/05/15 05:29:52;;;;;;;;;15.25;15.25;;;;;18.23;67.73;99334.66;5077856;28;45334;-62
2022/05/15 05:32:18;;;;;;;;;14.25;14.25;;;;;18.32;66.92;99330.50;5077758;28;45354;-62
2022/05/15 05:34:43;;;;;;;;;15.75;15.75;;;;;18.41;67.12;99328.06;5077261;28;45447;-62
2022/05/15 05:37:09;;;;;;;;;15.25;14.50;;;;;18.51;67.28;99335.44;5092073;27;45364;-62
2022/05/15 05:39:34;;;;;;;;;15.50;15.00;;;;;18.60;67.12;99333.00;5082486;27;46057;-62
2022/05/15 05:41:59;;;;;;;;;16.25;15.50;;;;;18.69;66.39;99336.84;5077947;28;45321;-62
2022/05/15 05:44:26;;;;;;;;;16.75;16.00;;;;;18.74;66.13;99332.91;5077534;28;45634;-62
2022/05/15 05:46:51;;;;;;;;;17.75;16.75;;;;;18.83;65.67;99334.06;5077362;28;45388;-62
2022/05/15 05:49:17;;;;;;;;;19.25;17.75;;;;;18.88;65.34;99326.59;5077665;28;45527;-62
2022/05/15 05:51:44;;;;;;;;;18.75;16.00;;;;;18.95;65.01;99333.19;5077579;28;45475;-62
2022/05/15 05:54:10;;;;;;;;;15.75;14.00;;;;;19.01;64.25;99329.25;5076813;28;46493;-62
2022/05/15 05:56:35;;;;;;;;;15.00;14.75;;;;;19.08;64.76;99335.88;5076910;28;45520;-62
2022/05/15 05:59:01;;;;;;;;;18.00;14.75;;;;;19.15;64.22;99335.31;5077226;28;45381;-62
2022/05/15 06:01:26;;;;;;;;;15.75;15.75;;;;;19.23;64.07;99331.22;5077330;28;45554;-62
2022/05/15 06:06:36;;;;;;;;;18.25;15.75;;;;;19.40;63.68;99328.19;5086324;27;45431;-62
2022/05/15 06:09:01;;;;;;;;;18.75;16.00;;;;;19.46;63.36;99333.94;5076753;28;45555;-62
2022/05/15 06:11:26;;;;;;;;;16.25;16.25;;;;;19.52;63.08;99330.84;5080907;27;45472;-62
2022/05/15 06:13:52;;;;;;;;;14.00;13.75;;;;;19.61;62.91;99331.97;5077131;28;45498;-62
2022/05/15 06:16:18;;;;;;;;;14.75;14.75;;;;;19.68;62.23;99335.91;5077316;28;45583;-62
2022/05/15 06:18:44;;;;;;;;;16.00;14.75;;;;;19.76;61.97;99322.84;5076970;28;45468;-62
2022/05/15 06:21:09;;;;;;;;;17.00;16.25;;;;;19.84;62.03;99327.59;5076723;28;45319;-62
2022/05/15 06:23:35;;;;;;;;;14.25;13.50;;;;;19.91;61.71;99330.69;5076070;28;46092;-62
2022/05/15 06:26:00;;;;;;;;;14.25;13.25;;;;;20.02;61.49;99328.03;5077056;28;45166;-62
2022/05/15 06:28:26;;;;;;;;;21.50;17.50;;;;;20.10;61.81;99331.88;5076488;28;45761;-62
2022/05/15 06:30:51;;;;;;;;;17.25;16.50;;;;;20.18;61.62;99331.28;5076239;28;45171;-62
2022/05/15 06:33:17;;;;;;;;;17.75;17.00;;;;;20.29;61.45;99333.13;5076672;28;45415;-62
2022/05/15 06:35:42;;;;;;;;;17.50;16.00;;;;;20.36;60.84;99329.00;5078807;27;45320;-62
2022/05/15 06:38:08;;;;;;;;;19.75;18.25;;;;;20.43;61.12;99324.94;5093249;27;45365;-62
2022/05/15 06:40:34;;;;;;;;;17.00;16.25;;;;;20.52;60.87;99326.88;5076857;28;45374;-62
2022/05/15 06:43:09;;;;;;;;;12.25;12.25;;;;;20.59;61.08;99322.78;5076381;28;45488;-62
2022/05/15 06:45:35;;;;;;;;;18.40;17.00;;;;;20.70;60.64;99319.25;5090174;27;45629;-62
2022/05/15 06:48:00;;;;;;;;;12.25;12.25;;;;;20.76;60.71;99322.31;5078012;27;45268;-62
2022/05/15 06:50:26;;;;;;;;;18.50;17.50;;;;;20.78;60.30;99317.66;5076278;28;45357;-64
2022/05/15 06:52:52;;;;;;;;;19.25;19.00;;;;;20.78;60.51;99320.31;5075515;28;46368;-64
2022/05/15 06:55:21;;;;;;;;;16.50;16.00;;;;;20.81;61.10;99314.72;5067264;27;45643;-53
2022/05/15 06:57:48;;;;;;;;;19.50;19.50;;;;;20.87;60.52;99313.41;5091030;27;45305;-55
2022/05/15 07:00:17;;;;;;;;;20.00;19.25;;;;;20.89;60.09;99304.28;5084050;27;45588;-55
2022/05/15 07:02:43;;;;;;;;;20.75;17.50;;;;;20.93;60.64;99302.22;5090008;27;45480;-54
2022/05/15 07:05:11;;;;;;;;;20.00;16.75;;;;;20.98;60.64;99310.72;5076995;27;45500;-56
2022/05/15 07:07:46;;;;;;;;;17.50;17.00;;;;;21.02;60.07;99301.47;5078496;27;45497;-56
2022/05/15 07:10:12;;;;;;;;;18.50;18.50;;;;;21.07;60.37;99303.78;5088806;27;45318;-56
2022/05/15 07:12:38;;;;;;;;;14.25;14.00;;;;;21.10;59.50;99290.13;5089567;27;46330;-56
2022/05/15 07:15:04;;;;;;;;;17.75;17.25;;;;;21.13;59.85;99296.06;5075394;28;45429;-55
2022/05/15 07:17:30;;;;;;;;;18.75;18.00;;;;;21.18;59.93;99301.94;5081882;27;45418;-55
2022/05/15 07:19:56;;;;;;;;;19.25;18.25;;;;;21.21;59.66;99296.34;5095986;27;45369;-56
2022/05/15 07:22:21;;;;;;;;;16.00;14.75;;;;;21.23;59.38;99289.03;5095416;27;46550;-56
2022/05/15 07:24:47;;;;;;;;;21.00;19.50;;;;;21.29;59.78;99294.84;5095311;27;45383;-56
2022/05/15 07:27:14;;;;;;;;;20.50;19.00;;;;;21.31;59.59;99290.22;5079042;27;45403;-56
2022/05/15 07:29:40;;;;;;;;;21.00;18.25;;;;;21.33;59.18;99285.59;5073263;28;45389;-55
2022/05/15 07:32:08;;;;;;;;;18.25;17.25;;;;;21.35;58.97;99289.88;5075340;28;46503;-55
2022/05/15 07:34:36;;;;;;;;;18.40;16.00;;;;;21.35;58.12;99287.19;5075059;27;45452;-55
2022/05/15 07:37:02;;;;;;;;;17.00;16.00;;;;;21.37;58.42;99287.91;5083007;27;45377;-56
2022/05/15 07:39:28;;;;;;;;;17.00;16.25;;;;;21.42;58.32;99285.72;5074701;28;45581;-56
2022/05/15 07:42:03;;;;;;;;;19.50;17.75;;;;;21.47;58.36;99278.13;5084960;27;45439;-55
2022/05/15 07:44:29;;;;;;;;;17.40;16.40;;;;;21.53;58.31;99277.63;5085510;27;45383;-57
2022/05/15 07:46:54;;;;;;;;;16.50;14.25;;;;;21.55;57.81;99273.00;5075644;28;45237;-58
2022/05/15 07:49:19;;;;;;;;;16.75;16.00;;;;;21.60;57.37;99261.88;5075284;28;45495;-55
2022/05/15 07:51:45;;;;;;;;;19.00;17.00;;;;;21.64;57.35;99260.63;5090475;27;45387;-56
2022/05/15 07:54:18;;;;;;;;;20.75;20.50;;;;;21.65;57.14;99259.66;5088752;27;45446;-56
2022/05/15 07:56:45;;;;;;;;;19.75;19.75;;;;;21.59;57.48;99261.03;5086225;27;45402;-55
2022/05/15 07:59:14;;;;;;;;;18.50;16.75;;;;;21.58;57.43;99262.00;5074908;28;45482;-56
2022/05/15 08:01:40;;;;;;;;;19.75;18.00;;;;;21.60;57.54;99264.56;5075345;28;45378;-56
2022/05/15 08:04:06;;;;;;;;;16.40;15.00;;;;;21.64;57.55;99260.63;5075865;27;45410;-56
2022/05/15 08:09:15;;;;;;;;;22.75;20.75;;;;;21.72;56.81;99251.94;5082491;27;45472;-55
2022/05/15 08:11:41;;;;;;;;;15.75;15.25;;;;;21.76;57.45;99251.56;5083860;27;46391;-56
2022/05/15 08:14:08;;;;;;;;;19.75;18.00;;;;;21.82;57.21;99250.19;5080127;27;45483;-56
2022/05/15 08:16:35;;;;;;;;;18.00;18.00;;;;;21.87;56.55;99253.34;5094589;27;45493;-57
2022/05/15 08:24:30;;;;;;;;;18.20;16.00;;;;;21.79;56.46;99243.22;5074191;28;45401;-57
2022/05/15 08:26:56;;;;;;;;;19.00;17.25;;;;;21.84;56.31;99240.16;5073803;28;45520;-53
2022/05/15 08:29:21;;;;;;;;;20.50;17.00;;;;;21.91;56.57;99242.22;5074282;28;45423;-57
2022/05/15 08:31:47;;;;;;;;;18.50;17.75;;;;;22.00;55.48;99245.13;5072792;28;45775;-57
2022/05/15 08:34:12;;;;;;;;;16.50;15.50;;;;;22.05;55.64;99246.44;5055975;28;45371;-56
2022/05/15 08:36:41;;;;;;;;;19.75;17.75;;;;;22.09;54.89;99242.53;5091184;27;45427;-56
2022/05/15 08:39:08;;;;;;;;;17.75;17.75;;;;;22.09;54.89;99247.03;5082564;27;45474;-58
2022/05/15 08:41:59;;;;;;;;;22.25;22.00;;;;;22.09;55.34;99237.16;5073728;28;45500;-58
2022/05/15 08:44:29;;;;;;;;;18.60;15.60;;;;;22.11;55.42;99237.03;5073998;28;45349;-58
2022/05/15 08:47:07;;;;;;;;;19.75;16.00;;;;;22.17;54.83;99244.53;5074115;28;45387;-58
2022/05/15 08:49:49;;;;;;;;;17.00;17.00;;;;;22.22;54.75;99245.84;5073875;28;45325;-57
2022/05/15 08:52:21;;;;;;;;;18.00;16.25;;;;;22.29;55.16;99243.47;5076534;27;46218;-57
2022/05/15 08:55:15;;;;;;;;;20.20;19.20;;;;;22.34;55.04;99243.94;5093492;27;45399;-57
2022/05/15 08:57:46;;;;;;;;;17.25;16.50;;;;;22.38;54.67;99239.16;5077751;27;45401;-58
2022/05/15 09:00:18;;;;;;;;;17.25;14.75;;;;;22.40;54.54;99234.50;5095700;27;45346;-55
2022/05/15 09:02:45;;;;;;;;;19.25;17.75;;;;;22.47;54.19;99228.44;5076154;27;46781;-59
2022/05/15 09:05:13;;;;;;;;;17.50;15.75;;;;;22.52;54.50;99233.41;5080619;27;45459;-59
2022/05/15 09:07:51;;;;;;;;;18.00;17.25;;;;;22.57;53.57;99233.88;5092572;27;45359;-59
2022/05/15 09:10:22;;;;;;;;;18.25;18.25;;;;;22.62;53.63;99240.53;5097904;27;45396;-58
2022/05/15 09:12:59;;;;;;;;;19.00;17.25;;;;;22.66;52.86;99229.50;5078368;27;46719;-59
2022/05/15 09:15:29;;;;;;;;;15.40;15.40;;;;;22.69;52.88;99230.09;5090227;27;45564;-59
2022/05/15 09:18:00;;;;;;;;;17.25;16.50;;;;;22.72;52.06;99229.84;5097864;27;45355;-59
2022/05/15 09:20:26;;;;;;;;;16.25;16.25;;;;;22.76;52.08;99241.19;5097647;27;45519;-59
2022/05/15 09:23:29;;;;;;;;;16.75;16.50;;;;;22.74;53.24;99235.94;5087424;27;45433;-59
2022/05/15 09:25:58;;;;;;;;;17.80;15.80;;;;;22.73;53.37;99230.69;5076773;28;45324;-59
2022/05/15 09:28:27;;;;;;;;;11.25;11.25;;;;;22.68;53.02;99232.91;5077681;28;45411;-59
2022/05/15 09:30:57;;;;;;;;;20.75;17.00;;;;;22.64;52.83;99229.66;5076906;28;45478;-59
2022/05/15 09:33:28;;;;;;;;;17.75;17.50;;;;;22.63;53.28;99234.16;5090752;27;46286;-59
2022/05/15 09:36:24;;;;;;;;;19.75;19.25;;;;;22.63;53.97;99233.31;5079916;27;45458;-59
2022/05/15 09:39:10;;;;;;;;;20.75;18.50;;;;;22.68;53.73;99240.97;5088054;27;45408;-58
2022/05/15 09:44:33;;;;;;;;;19.75;18.25;;;;;22.74;54.07;99233.25;5044643;28;45543;-58
2022/05/15 09:47:20;;;;;;;;;22.00;20.25;;;;;22.75;53.71;99221.50;5078183;27;45445;-58
2022/05/15 09:49:46;;;;;;;;;25.25;20.25;;;;;22.83;53.50;99224.38;5093584;27;45381;-58
2022/05/15 09:52:17;;;;;;;;;15.50;15.50;;;;;22.90;53.79;99222.00;5096450;27;45488;-58
2022/05/15 09:54:45;;;;;;;;;17.25;17.25;;;;;22.95;53.34;99214.38;5090545;27;46549;-58
2022/05/15 09:57:13;;;;;;;;;18.40;15.80;;;;;23.00;53.92;99204.06;5076377;28;45468;-58
2022/05/15 09:59:39;;;;;;;;;17.50;15.25;;;;;23.07;52.91;99212.44;5076724;27;45593;-59
2022/05/15 10:02:05;;;;;;;;;19.25;16.75;;;;;23.12;52.17;99211.03;5066181;27;45416;-59
2022/05/15 10:04:40;;;;;;;;;14.00;13.50;;;;;23.20;53.17;99200.41;5090116;27;48527;-59
2022/05/15 10:07:09;;;;;;;;;18.00;17.20;;;;;23.30;52.71;99216.56;5070721;28;45445;-59
2022/05/15 10:09:40;;;;;;;;;16.50;14.75;;;;;23.36;52.94;99210.63;5076130;28;45382;-59
2022/05/15 10:12:20;;;;;;;;;9.75;9.25;;;;;23.44;52.23;99197.34;5095014;27;45312;-62
2022/05/15 10:14:53;;;;;;;;;16.00;16.00;;;;;23.55;52.03;99193.69;5086081;27;46305;-62
2022/05/15 10:17:21;;;;;;;;;20.20;18.00;;;;;23.64;52.22;99198.19;5080579;27;45854;-63
2022/05/15 10:19:50;;;;;;;;;15.00;14.25;;;;;23.69;51.96;99198.63;5088264;27;45195;-63
2022/05/15 10:22:34;;;;;;;;;20.00;18.50;;;;;23.72;52.72;99184.88;5077600;27;45381;-63
2022/05/15 10:25:18;;;;;;;;;21.00;16.00;;;;;23.83;51.84;99181.19;5090729;27;45702;-62
2022/05/15 10:27:49;;;;;;;;;13.20;13.20;;;;;23.93;51.71;99173.97;5084232;27;45342;-63
2022/05/15 10:30:37;;;;;;;;;15.75;13.25;;;;;24.04;50.25;99175.63;5091211;27;45543;-62
2022/05/15 10:33:35;;;;;;;;;13.75;12.50;;;;;24.15;49.74;99170.91;5090072;27;45423;-63
2022/05/15 10:36:23;;;;;;;;;15.75;14.25;;;;;24.26;48.58;99164.53;5073857;27;46357;-62
2022/05/15 10:39:09;;;;;;;;;12.80;10.40;;;;;24.37;48.09;99145.47;5083578;27;45377;-64
2022/05/15 10:41:47;;;;;;;;;10.50;10.50;;;;;24.49;46.05;99152.38;5070540;28;45615;-63
2022/05/15 10:44:25;;;;;;;;;11.75;11.75;;;;;24.57;46.49;99146.25;5055697;28;45518;-63
2022/05/15 10:46:57;;;;;;;;;11.00;8.75;;;;;24.67;47.17;99150.59;5055492;28;45478;-63
2022/05/15 10:49:48;;;;;;;;;13.60;13.60;;;;;24.81;46.80;99129.50;5068374;28;45439;-63
2022/05/15 10:53:00;;;;;;;;;11.50;11.50;;;;;24.96;46.34;99161.25;5069615;28;45385;-63
2022/05/15 10:58:39;;;;;;;;;15.75;13.75;;;;;25.12;46.52;99122.81;5067818;28;45744;-62
2022/05/15 11:01:28;;;;;;;;;12.20;11.60;;;;;25.22;46.39;99134.38;5068546;28;45547;-62
2022/05/15 11:04:13;;;;;;;;;14.25;14.00;;;;;25.31;47.07;99130.72;5023293;28;45477;-62
2022/05/15 11:06:50;;;;;;;;;13.25;13.00;;;;;25.44;46.77;99134.91;5029394;28;45548;-62
2022/05/15 11:09:24;;;;;;;;;11.25;11.25;;;;;25.51;45.41;99119.75;5024503;28;45629;-63
2022/05/15 11:12:08;;;;;;;;;13.40;12.20;;;;;25.54;45.58;99112.19;5024530;28;45330;-62
2022/05/15 11:14:50;;;;;;;;;11.75;11.75;;;;;25.64;44.73;99102.19;5023018;28;45500;-63
2022/05/15 11:17:18;;;;;;;;;15.75;15.50;;;;;25.75;44.64;99102.94;5021932;28;45489;-63
2022/05/15 11:19:46;;;;;;;;;9.75;9.00;;;;;25.82;44.88;99104.84;5023589;28;46515;-63
2022/05/15 11:22:46;;;;;;;;;18.20;18.00;;;;;25.85;44.87;99099.13;5027774;28;45508;-63
2022/05/15 11:25:17;;;;;;;;;15.00;15.00;;;;;25.88;45.51;99090.72;5026006;28;45588;-62
2022/05/15 11:27:49;;;;;;;;;16.00;13.00;;;;;25.93;45.37;99101.03;5031325;28;45520;-66
2022/05/15 11:30:37;;;;;;;;;14.00;14.00;;;;;25.98;45.37;99091.44;5011173;28;46896;-66
2022/05/15 11:33:17;;;;;;;;;11.20;11.00;;;;;26.08;44.82;99102.16;5012543;28;45470;-66
2022/05/15 11:36:12;;;;;;;;;13.75;13.50;;;;;26.14;44.63;99097.97;5054314;28;45590;-66
2022/05/15 11:39:05;;;;;;;;;17.75;15.75;;;;;26.13;45.18;99098.97;5056191;28;45428;-66
2022/05/15 11:41:44;;;;;;;;;17.50;15.25;;;;;26.11;45.38;99064.00;5073749;27;45412;-66
2022/05/15 11:44:19;;;;;;;;;15.60;15.00;;;;;26.15;45.97;99069.91;5085798;27;45629;-66
2022/05/15 11:46:44;;;;;;;;;18.50;18.50;;;;;26.17;45.80;99076.84;5077377;27;45401;-66
2022/05/15 11:49:16;;;;;;;;;20.25;19.00;;;;;26.14;46.35;99055.56;5092698;27;45548;-66